createdAt,value
2023-05-03T04:03:53.331Z,89.53
2023-05-03T04:08:06.250Z,91.33
2023-05-03T04:12:19.845Z,90.92
2023-05-03T04:16:31.540Z,91.39
2023-05-03T04:20:45.594Z,90.71
2023-05-03T04:25:03.878Z,90.99
2023-05-03T04:29:15.660Z,91.22
2023-05-03T04:33:31.396Z,90.33
2023-05-03T04:37:47.371Z,90.05
2023-05-03T04:42:03.903Z,90.15
2023-05-03T04:46:15.652Z,89.51
2023-05-03T04:50:27.301Z,89.46
2023-05-03T04:54:39.320Z,88.93
2023-05-03T04:58:51.334Z,87.89
2023-05-03T05:03:03.187Z,88.20
2023-05-03T05:07:16.910Z,87.22
2023-05-03T05:11:29.916Z,87.26
2023-05-03T05:15:42.924Z,86.87
2023-05-03T05:19:56.681Z,85.66
2023-05-03T05:24:09.100Z,86.31
2023-05-03T05:28:21.719Z,85.71
2023-05-03T05:32:33.438Z,86.06
2023-05-03T05:36:45.659Z,85.30
2023-05-03T05:40:57.803Z,85.22
2023-05-03T05:45:10.368Z,85.54
2023-05-03T05:49:23.722Z,85.46
2023-05-03T05:53:35.639Z,85.17
2023-05-03T05:57:47.563Z,80.83
2023-05-03T06:02:01.278Z,60.89
2023-05-03T06:06:13.935Z,51.18
2023-05-03T06:10:26.660Z,46.27
2023-05-03T06:14:46.174Z,42.61
2023-05-03T06:19:01.723Z,43.15
2023-05-03T06:23:13.257Z,42.16
2023-05-03T06:27:25.002Z,41.05
2023-05-03T06:31:37.843Z,39.81
2023-05-03T06:35:49.629Z,42.29
2023-05-03T06:40:03.319Z,44.48
2023-05-03T06:44:15.067Z,46.48
2023-05-03T06:48:27.936Z,48.15
2023-05-03T06:52:39.690Z,50.91
2023-05-03T06:56:51.202Z,53.81
2023-05-03T07:01:03.258Z,55.49
2023-05-03T07:05:14.805Z,56.83
2023-05-03T07:09:39.309Z,56.68
2023-05-03T07:13:54.793Z,56.02
2023-05-03T07:18:06.547Z,58.51
2023-05-03T07:22:20.616Z,59.08
2023-05-03T07:26:32.152Z,58.64
2023-05-03T07:30:43.652Z,58.53
2023-05-03T07:34:55.485Z,59.59
2023-05-03T07:39:07.409Z,58.80
2023-05-03T07:43:20.280Z,59.38
2023-05-03T07:47:32.780Z,60.83
2023-05-03T07:51:44.573Z,60.70
2023-05-03T07:55:56.621Z,61.44
2023-05-03T08:00:10.849Z,62.54
2023-05-03T08:04:26.067Z,62.51
2023-05-03T08:08:38.229Z,61.40
2023-05-03T08:12:49.758Z,62.94
2023-05-03T08:17:01.373Z,63.19
2023-05-03T08:21:13.471Z,62.97
2023-05-03T08:25:26.038Z,63.11
2023-05-03T08:29:38.186Z,64.67
2023-05-03T08:33:49.878Z,64.81
2023-05-03T08:38:01.576Z,64.31
2023-05-03T08:42:13.762Z,63.63
2023-05-03T08:46:26.011Z,63.53
2023-05-03T08:50:42.121Z,64.25
2023-05-03T08:54:53.699Z,64.81
2023-05-03T08:59:09.069Z,65.62
2023-05-03T09:03:20.811Z,64.62
2023-05-03T09:07:32.393Z,63.44
2023-05-03T09:11:44.472Z,63.44
2023-05-03T09:15:57.793Z,63.36
2023-05-03T09:20:09.961Z,63.18
2023-05-03T09:24:22.393Z,63.07
2023-05-03T09:28:43.627Z,62.04
2023-05-03T09:32:55.347Z,62.87
2023-05-03T09:37:07.533Z,61.69
2023-05-03T09:41:31.940Z,62.60
2023-05-03T09:45:43.479Z,61.83
2023-05-03T09:49:55.030Z,61.87
2023-05-03T09:54:06.908Z,60.14
2023-05-03T09:58:18.903Z,60.19
2023-05-03T10:02:32.571Z,60.73
2023-05-03T10:06:48.273Z,59.80
2023-05-03T10:11:03.557Z,59.45
2023-05-03T10:15:16.812Z,59.51
2023-05-03T10:19:37.494Z,58.52
2023-05-03T10:24:09.647Z,58.99
2023-05-03T10:28:21.158Z,57.85
2023-05-03T10:32:32.728Z,57.03
2023-05-03T10:36:49.769Z,56.40
2023-05-03T10:41:03.625Z,57.26
2023-05-03T10:45:26.567Z,55.52
2023-05-03T10:49:38.115Z,54.42
2023-05-03T10:53:49.684Z,54.99
2023-05-03T10:58:01.833Z,54.85
2023-05-03T11:02:19.059Z,54.96
2023-05-03T11:06:45.979Z,54.04
2023-05-03T11:11:00.662Z,53.24
2023-05-03T11:15:12.415Z,52.41
2023-05-03T11:19:24.950Z,53.86
2023-05-03T11:23:38.973Z,52.56
2023-05-03T11:27:50.531Z,51.63
2023-05-03T11:32:02.169Z,50.71
2023-05-03T11:36:14.891Z,51.84
2023-05-03T11:40:26.869Z,51.30
2023-05-03T11:44:38.388Z,50.36
2023-05-03T11:48:49.989Z,51.19
2023-05-03T11:53:01.502Z,51.45
2023-05-03T11:57:14.652Z,52.01
2023-05-03T12:01:30.303Z,49.54
2023-05-03T12:05:44.311Z,50.51
2023-05-03T12:10:10.391Z,50.50
2023-05-03T12:14:29.297Z,50.39
2023-05-03T12:18:55.748Z,51.20
2023-05-03T12:23:10.326Z,49.27
2023-05-03T12:27:23.960Z,49.53
2023-05-03T12:31:39.131Z,49.16
2023-05-03T12:35:53.485Z,49.16
2023-05-03T12:40:31.756Z,49.46
2023-05-03T12:44:43.037Z,48.94
2023-05-03T12:48:55.244Z,49.89
2023-05-03T12:53:09.827Z,48.69
2023-05-03T12:57:24.082Z,49.51
2023-05-03T13:02:40.653Z,48.69
2023-05-03T13:06:13.408Z,48.89
2023-05-03T13:10:27.090Z,47.88
2023-05-03T13:14:39.562Z,48.11
2023-05-03T13:18:55.157Z,47.64
2023-05-03T13:23:07.338Z,46.85
2023-05-03T13:27:21.478Z,46.97
2023-05-03T13:31:38.469Z,47.50
2023-05-03T13:35:56.273Z,47.40
2023-05-03T13:40:14.883Z,45.81
2023-05-03T13:44:36.326Z,45.96
2023-05-03T13:48:50.251Z,45.96
2023-05-03T13:53:05.026Z,45.19
2023-05-03T13:57:23.851Z,44.68
2023-05-03T14:01:36.921Z,45.34
2023-05-03T14:05:48.586Z,45.33
2023-05-03T14:10:10.042Z,44.39
2023-05-03T14:14:22.292Z,45.99
2023-05-03T14:18:34.032Z,44.82
2023-05-03T14:22:46.343Z,44.22
2023-05-03T14:27:00.017Z,43.37
2023-05-03T14:31:12.752Z,43.71
2023-05-03T14:35:24.351Z,43.72
2023-05-03T14:39:36.408Z,43.50
2023-05-03T14:43:47.996Z,43.33
2023-05-03T14:47:59.630Z,43.53
2023-05-03T14:52:11.180Z,43.24
2023-05-03T14:56:22.761Z,42.88
2023-05-03T15:00:39.053Z,43.08
2023-05-03T15:04:50.667Z,42.56
2023-05-03T15:09:02.207Z,42.46
2023-05-03T15:13:14.668Z,42.51
2023-05-03T15:17:26.806Z,43.04
2023-05-03T15:21:51.557Z,41.59
2023-05-03T15:26:03.202Z,42.11
2023-05-03T15:30:17.231Z,41.85
2023-05-03T15:34:29.515Z,42.52
2023-05-03T15:38:41.249Z,42.08
2023-05-03T15:42:52.927Z,42.03
2023-05-03T15:47:04.588Z,42.46
2023-05-03T15:51:16.470Z,42.28
2023-05-03T15:55:31.587Z,41.20
2023-05-03T15:59:43.374Z,41.63
2023-05-03T16:03:55.125Z,42.30
2023-05-03T16:08:08.158Z,42.46
2023-05-03T16:12:19.729Z,42.52
2023-05-03T16:16:31.338Z,41.50
2023-05-03T16:20:42.881Z,41.62
2023-05-03T16:24:54.392Z,41.98
2023-05-03T16:29:05.885Z,42.53
2023-05-03T16:33:17.966Z,42.00
2023-05-03T16:37:31.359Z,42.40
2023-05-03T16:41:42.946Z,42.58
2023-05-03T16:46:02.203Z,43.15
2023-05-03T16:50:13.937Z,42.42
2023-05-03T16:54:25.593Z,43.14
2023-05-03T16:58:37.256Z,42.80
2023-05-03T17:02:49.176Z,42.43
2023-05-03T17:07:01.436Z,42.51
2023-05-03T17:11:14.243Z,42.88
2023-05-03T17:15:26.957Z,44.03
2023-05-03T17:19:38.749Z,43.87
2023-05-03T17:23:51.201Z,43.52
2023-05-03T17:28:03.626Z,43.52
2023-05-03T17:32:15.437Z,44.02
2023-05-03T17:36:29.235Z,44.07
2023-05-03T17:40:43.657Z,44.13
2023-05-03T17:44:56.127Z,44.67
2023-05-03T17:49:08.009Z,46.05
2023-05-03T17:53:19.617Z,46.05
2023-05-03T17:57:31.493Z,46.29
2023-05-03T18:01:43.187Z,47.03
2023-05-03T18:05:54.893Z,48.08
2023-05-03T18:10:07.206Z,48.92
2023-05-03T18:14:18.773Z,48.89
2023-05-03T18:18:30.385Z,49.78
2023-05-03T18:22:42.244Z,50.37
2023-05-03T18:26:53.820Z,51.09
2023-05-03T18:31:05.487Z,51.67
2023-05-03T18:35:17.495Z,52.33
2023-05-03T18:39:29.355Z,52.72
2023-05-03T18:43:42.419Z,53.22
2023-05-03T18:47:54.304Z,53.80
2023-05-03T18:52:06.022Z,54.20
2023-05-03T18:56:17.515Z,54.95
2023-05-03T19:00:29.306Z,55.30
2023-05-03T19:04:45.073Z,55.43
2023-05-03T19:08:57.351Z,56.22
2023-05-03T19:13:09.507Z,56.29
2023-05-03T19:17:21.468Z,56.41
2023-05-03T19:21:34.916Z,57.07
2023-05-03T19:25:46.519Z,57.78
2023-05-03T19:29:58.083Z,57.86
2023-05-03T19:34:11.255Z,57.61
2023-05-03T19:38:22.977Z,57.95
2023-05-03T19:42:34.666Z,57.98
2023-05-03T19:46:46.305Z,59.06
2023-05-03T19:50:59.203Z,58.79
2023-05-03T19:55:11.397Z,59.08
2023-05-03T19:59:22.983Z,58.17
2023-05-03T20:03:34.667Z,59.20
2023-05-03T20:07:48.937Z,59.93
2023-05-03T20:12:02.003Z,58.87
2023-05-03T20:16:13.793Z,59.91
2023-05-03T20:20:25.475Z,58.71
2023-05-03T20:24:37.051Z,59.71
2023-05-03T20:28:48.649Z,59.37
2023-05-03T20:33:00.223Z,58.30
2023-05-03T20:37:11.811Z,59.43
2023-05-03T20:41:23.689Z,59.55
2023-05-03T20:45:35.511Z,59.73
2023-05-03T20:49:47.033Z,60.01
2023-05-03T20:53:58.991Z,60.92
2023-05-03T20:58:12.092Z,60.88
2023-05-03T21:02:23.683Z,61.07
2023-05-03T21:06:38.002Z,61.18
2023-05-03T21:10:49.540Z,61.15
2023-05-03T21:15:01.678Z,61.51
2023-05-03T21:19:13.518Z,62.12
2023-05-03T21:23:25.518Z,62.00
2023-05-03T21:27:37.108Z,62.67
